Time;durP1;ratioP1;P1;durP2;ratioP2;P2;SDS_P1;SDS_P2;PMS_P1;PMS_P2;Temp;Humidity;BMP_temperature;BMP_pressure;BME280_temperature;BME280_humidity;BME280_pressure;Samples;Min_cycle;Max_cycle;Signal;HPM_P1;HPM_P2
2022/05/26 00:02:05;;;;;;;8.27;6.43;;;;;;;20.14;82.86;99116.47;5109929;28;20232;-84
2022/05/26 00:04:32;;;;;;;8.00;6.77;;;;;;;20.21;82.48;99119.97;5109956;28;20687;-84
2022/05/26 00:06:59;;;;;;;10.00;6.57;;;;;;;20.21;82.56;99108.78;5110090;28;20225;-84
2022/05/26 00:09:27;;;;;;;11.10;6.60;;;;;;;20.15;82.35;99104.28;5113865;28;20251;-84
2022/05/26 00:11:56;;;;;;;7.57;6.27;;;;;;;20.12;83.04;99108.84;5114086;27;20237;-82
2022/05/26 00:14:22;;;;;;;9.30;6.23;;;;;;;20.15;82.46;99099.91;5114039;28;20604;-82
2022/05/26 00:16:49;;;;;;;9.97;6.30;;;;;;;20.09;82.73;99091.00;5114206;28;20241;-84
2022/05/26 00:19:18;;;;;;;9.87;6.20;;;;;;;20.22;82.51;99095.66;5114217;28;20218;-84
2022/05/26 00:21:47;;;;;;;8.47;6.20;;;;;;;20.25;82.11;99081.50;5113971;28;20223;-84
2022/05/26 00:24:14;;;;;;;9.83;6.57;;;;;;;20.23;82.20;99080.88;5114044;27;20866;-84
2022/05/26 00:26:42;;;;;;;8.00;6.23;;;;;;;20.27;82.04;99082.13;5113978;28;20224;-84
2022/05/26 00:29:09;;;;;;;7.87;5.90;;;;;;;20.22;82.10;99068.88;5113945;28;20194;-84
2022/05/26 00:31:36;;;;;;;7.10;5.77;;;;;;;20.22;81.90;99068.88;5113489;28;20245;-84
2022/05/26 00:34:03;;;;;;;7.70;6.10;;;;;;;20.34;81.23;99068.28;5113694;28;20449;-84
2022/05/26 00:36:41;;;;;;;9.93;6.07;;;;;;;20.34;81.09;99064.91;5113615;28;20225;-83
2022/05/26 00:39:10;;;;;;;9.90;5.80;;;;;;;20.28;81.22;99060.41;5113720;28;20608;-82
2022/05/26 00:41:40;;;;;;;8.87;6.30;;;;;;;20.25;81.86;99061.56;5113668;28;20242;-84
2022/05/26 00:44:08;;;;;;;7.77;6.00;;;;;;;20.26;81.61;99064.94;5113577;28;20291;-82
2022/05/26 00:46:40;;;;;;;9.03;6.00;;;;;;;20.27;81.68;99061.34;5113872;28;20254;-84
2022/05/26 00:49:14;;;;;;;7.80;5.87;;;;;;;20.20;81.73;99065.66;5113225;28;20236;-84
2022/05/26 00:51:41;;;;;;;8.37;5.87;;;;;;;20.19;81.53;99069.19;5113284;28;20242;-83
2022/05/26 00:54:14;;;;;;;10.93;6.00;;;;;;;20.26;81.43;99080.53;5113438;28;20200;-84
2022/05/26 00:56:50;;;;;;;6.23;5.53;;;;;;;20.32;81.25;99079.84;5113190;28;20217;-84
2022/05/26 00:59:24;;;;;;;10.30;5.97;;;;;;;20.46;80.68;99080.88;5113582;28;20741;-83
2022/05/26 01:01:51;;;;;;;9.93;5.90;;;;;;;20.46;81.05;99084.28;5112873;28;20234;-84
2022/05/26 01:04:22;;;;;;;9.80;5.70;;;;;;;20.46;80.80;99086.88;5113014;28;20207;-84
2022/05/26 01:06:56;;;;;;;8.63;6.00;;;;;;;20.53;80.17;99087.78;5112780;28;20721;-83
2022/05/26 01:09:23;;;;;;;9.77;5.63;;;;;;;20.55;80.36;99096.22;5112937;28;20849;-84
2022/05/26 01:11:50;;;;;;;7.37;5.77;;;;;;;20.56;80.35;99097.84;5112575;28;20721;-85
2022/05/26 01:14:22;;;;;;;8.37;5.90;;;;;;;20.35;81.92;99108.03;5112882;28;20216;-83
2022/05/26 01:17:00;;;;;;;8.10;6.03;;;;;;;20.25;82.53;99112.66;5112304;28;20291;-83
2022/05/26 01:20:14;;;;;;;9.93;6.00;;;;;;;20.20;83.01;99112.38;5112751;28;20200;-85
2022/05/26 01:23:08;;;;;;;7.67;6.30;;;;;;;20.20;82.50;99114.97;5098007;28;20234;-85
2022/05/26 01:26:06;;;;;;;8.53;6.13;;;;;;;20.18;82.37;99109.13;5112190;28;20209;-83
2022/05/26 01:28:52;;;;;;;10.43;6.60;;;;;;;20.08;83.30;99099.78;5112731;28;20201;-85
2022/05/26 01:31:36;;;;;;;18.97;7.50;;;;;;;19.94;83.70;99097.13;5112324;28;20232;-85
2022/05/26 01:34:12;;;;;;;18.43;7.80;;;;;;;19.84;84.79;99094.75;5112361;28;20201;-83
2022/05/26 01:36:47;;;;;;;15.40;8.07;;;;;;;19.78;85.32;99087.63;5112120;28;20275;-83
2022/05/26 01:39:24;;;;;;;12.87;8.07;;;;;;;19.63;86.48;99101.28;5112439;28;20202;-85
2022/05/26 01:42:11;;;;;;;12.33;8.57;;;;;;;19.61;87.03;99098.06;5112056;28;20223;-83
2022/05/26 01:44:48;;;;;;;16.33;8.80;;;;;;;19.64;86.53;99102.91;5112114;28;20200;-85
2022/05/26 01:47:28;;;;;;;11.97;8.83;;;;;;;19.63;87.22;99093.50;5112027;28;20253;-85
2022/05/26 01:50:01;;;;;;;13.00;9.30;;;;;;;19.62;87.17;99099.66;5112170;28;20202;-85
2022/05/26 01:52:35;;;;;;;11.03;8.40;;;;;;;19.62;87.74;99096.25;5112019;28;20243;-85
2022/05/26 01:55:10;;;;;;;11.67;8.57;;;;;;;19.49;87.70;99107.19;5112153;28;20200;-85
2022/05/26 01:57:47;;;;;;;14.00;8.93;;;;;;;19.39;88.61;99119.50;5112002;28;20253;-85
2022/05/26 02:00:17;;;;;;;10.07;8.53;;;;;;;19.37;88.91;99126.63;5111814;28;20207;-83
2022/05/26 02:02:51;;;;;;;12.63;8.63;;;;;;;19.36;88.81;99141.41;5112390;28;20228;-85
2022/05/26 02:05:21;;;;;;;14.03;8.40;;;;;;;19.41;89.08;99146.09;5111927;28;20193;-83
2022/05/26 02:07:52;;;;;;;13.47;8.50;;;;;;;19.45;88.88;99149.97;5111486;28;20231;-84
2022/05/26 02:10:23;;;;;;;12.47;8.60;;;;;;;19.44;89.16;99171.69;5111382;27;20193;-83
2022/05/26 02:12:56;;;;;;;15.13;8.60;;;;;;;19.24;90.25;99207.53;5111477;28;20234;-84
2022/05/26 02:15:28;;;;;;;12.40;8.67;;;;;;;19.13;90.67;99202.66;5111825;27;20213;-83
2022/05/26 02:18:02;;;;;;;13.17;8.90;;;;;;;19.06;91.51;99228.44;5111376;28;20660;-83
2022/05/26 02:20:36;;;;;;;14.20;9.63;;;;;;;18.88;93.41;99232.94;5111382;28;20692;-83
2022/05/26 02:23:07;;;;;;;13.60;10.20;;;;;;;18.81;94.96;99237.16;5111436;28;20235;-82
2022/05/26 02:25:35;;;;;;;15.53;10.70;;;;;;;18.66;94.87;99237.75;5111163;28;20215;-82
2022/05/26 02:28:02;;;;;;;16.73;11.27;;;;;;;18.42;95.95;99232.53;5111533;28;20234;-85
2022/05/26 02:30:31;;;;;;;14.50;11.47;;;;;;;18.31;96.83;99228.44;5111086;28;20369;-82
2022/05/26 02:33:01;;;;;;;15.63;11.33;;;;;;;18.32;96.38;99225.69;5111205;28;20318;-84
2022/05/26 02:35:31;;;;;;;16.30;12.63;;;;;;;18.34;96.46;99222.94;5111035;28;20397;-83
2022/05/26 02:38:00;;;;;;;16.57;11.80;;;;;;;18.32;95.68;99223.13;5111127;28;20623;-82
2022/05/26 02:40:28;;;;;;;16.33;11.83;;;;;;;18.45;94.64;99219.25;5111113;28;20237;-84
2022/05/26 02:42:57;;;;;;;17.17;12.10;;;;;;;18.42;94.61;99222.97;5111271;28;20220;-82
2022/05/26 02:45:38;;;;;;;17.67;11.83;;;;;;;18.42;94.04;99230.75;5110866;28;20199;-82
2022/05/26 02:48:20;;;;;;;15.00;11.90;;;;;;;18.38;94.20;99226.03;5111091;28;20668;-83
2022/05/26 02:50:57;;;;;;;17.27;12.13;;;;;;;18.33;94.61;99222.13;5110907;28;20520;-83
2022/05/26 02:53:31;;;;;;;16.77;11.47;;;;;;;18.30;94.84;99219.88;5110842;28;20226;-81
2022/05/26 02:56:07;;;;;;;15.43;11.83;;;;;;;18.25;94.96;99209.16;5110711;28;20688;-83
2022/05/26 02:58:41;;;;;;;14.20;11.27;;;;;;;18.23;94.70;99211.09;5110788;28;20191;-82
2022/05/26 03:01:15;;;;;;;14.80;11.50;;;;;;;18.30;94.46;99227.63;5110707;27;20633;-82
2022/05/26 03:03:47;;;;;;;14.23;11.43;;;;;;;18.28;94.21;99234.72;5110918;28;20234;-82
2022/05/26 03:06:20;;;;;;;14.77;11.10;;;;;;;18.31;93.83;99234.41;5111028;28;20203;-82
2022/05/26 03:08:47;;;;;;;13.53;10.03;;;;;;;18.24;93.20;99233.44;5111084;28;20237;-83
2022/05/26 03:11:18;;;;;;;15.67;10.83;;;;;;;18.29;93.38;99235.53;5110658;28;20272;-83
2022/05/26 03:13:45;;;;;;;13.57;10.87;;;;;;;18.33;92.47;99237.66;5110441;28;20267;-84
2022/05/26 03:16:12;;;;;;;14.27;11.07;;;;;;;18.32;93.12;99240.41;5110595;28;20205;-83
2022/05/26 03:18:39;;;;;;;14.83;10.50;;;;;;;18.30;92.68;99243.16;5110850;27;20222;-84
2022/05/26 03:21:08;;;;;;;16.03;11.13;;;;;;;18.29;92.73;99246.69;5110237;28;20591;-84
2022/05/26 03:23:37;;;;;;;14.53;10.37;;;;;;;18.28;92.84;99262.41;5110360;28;20202;-84
2022/05/26 03:26:05;;;;;;;15.90;10.33;;;;;;;18.31;92.89;99264.66;5110189;28;20303;-82
2022/05/26 03:28:32;;;;;;;15.07;10.17;;;;;;;18.28;92.43;99260.63;5110398;28;20215;-82
2022/05/26 03:30:59;;;;;;;13.53;9.87;;;;;;;18.23;92.69;99262.84;5110310;28;20207;-82
2022/05/26 03:40:45;;;;;;;12.03;9.27;;;;;;;18.32;91.53;99254.19;5110139;28;20236;-81
2022/05/26 03:41:42;;;;;;;11.83;8.43;;;;;;;18.38;90.13;99254.50;5110023;28;20716;-82
2022/05/26 03:44:09;;;;;;;9.87;8.00;;;;;;;18.38;90.29;99259.66;5109233;28;20284;-83
2022/05/26 03:46:38;;;;;;;11.30;8.30;;;;;;;18.39;90.38;99263.91;5109845;28;20222;-82
2022/05/26 03:49:06;;;;;;;11.27;8.33;;;;;;;18.51;90.04;99270.41;5109817;28;20210;-83
2022/05/26 03:51:34;;;;;;;11.77;7.93;;;;;;;18.54;89.78;99277.84;5109793;28;20236;-82
2022/05/26 03:54:01;;;;;;;12.00;7.90;;;;;;;18.62;89.49;99277.88;5110075;28;20203;-83
2022/05/26 03:56:28;;;;;;;13.00;8.00;;;;;;;18.63;90.31;99274.31;5109803;28;20233;-83
2022/05/26 03:58:55;;;;;;;11.53;7.80;;;;;;;18.61;89.82;99276.25;5109635;28;20203;-83
2022/05/26 04:01:22;;;;;;;10.57;7.90;;;;;;;18.63;90.31;99279.50;5109946;28;20215;-82
2022/05/26 04:03:50;;;;;;;12.63;8.00;;;;;;;18.68;89.17;99282.44;5109808;28;20438;-82
2022/05/26 04:06:17;;;;;;;9.43;7.63;;;;;;;18.74;88.71;99292.19;5109659;28;20200;-82
2022/05/26 04:08:46;;;;;;;11.10;8.07;;;;;;;18.92;87.53;99299.84;5109943;28;20207;-78
2022/05/26 04:11:13;;;;;;;10.40;7.53;;;;;;;19.02;87.29;99304.84;5109886;28;20200;-81
2022/05/26 04:13:39;;;;;;;10.67;7.37;;;;;;;19.11;87.51;99313.47;5109608;28;20200;-78
2022/05/26 04:16:06;;;;;;;11.27;7.77;;;;;;;19.20;86.81;99308.16;5109901;28;20247;-84
2022/05/26 04:18:34;;;;;;;9.37;7.30;;;;;;;19.38;85.82;99309.78;5109464;28;20210;-81
2022/05/26 04:21:05;;;;;;;10.07;7.43;;;;;;;19.51;86.69;99323.03;5109699;28;20220;-81
2022/05/26 04:23:32;;;;;;;10.70;7.53;;;;;;;19.61;86.20;99326.31;5109419;28;20270;-80
2022/05/26 04:26:00;;;;;;;9.93;6.90;;;;;;;19.73;87.12;99341.56;5109750;28;20216;-79
2022/05/26 04:28:27;;;;;;;8.30;6.83;;;;;;;19.84;86.03;99341.25;5109464;28;20221;-79
2022/05/26 04:30:54;;;;;;;7.70;6.90;;;;;;;19.97;86.67;99346.72;5109171;28;20207;-82
2022/05/26 04:33:21;;;;;;;7.97;6.77;;;;;;;20.15;85.58;99348.31;5109247;28;20360;-82
2022/05/26 04:35:48;;;;;;;12.77;7.20;;;;;;;20.27;84.23;99341.78;5109455;28;20613;-80
2022/05/26 04:38:14;;;;;;;9.43;6.40;;;;;;;20.40;83.98;99351.66;5109556;28;20223;-80
2022/05/26 04:40:43;;;;;;;7.23;6.43;;;;;;;20.41;83.05;99354.06;5109330;28;20207;-80
2022/05/26 04:43:12;;;;;;;7.33;6.17;;;;;;;20.54;83.24;99366.56;5109227;28;20223;-80
2022/05/26 04:45:39;;;;;;;7.97;6.57;;;;;;;20.64;81.84;99363.75;5109727;28;20577;-82
2022/05/26 04:48:07;;;;;;;7.93;6.13;;;;;;;20.80;83.40;99372.31;5109401;28;20230;-82
2022/05/26 04:50:34;;;;;;;7.60;5.83;;;;;;;20.91;78.74;99378.88;5109354;28;20242;-81
2022/05/26 04:53:01;;;;;;;7.50;5.90;;;;;;;21.06;79.03;99385.97;5109104;28;20272;-82
2022/05/26 04:55:28;;;;;;;8.83;5.97;;;;;;;21.13;79.44;99389.50;5112746;28;20203;-81
2022/05/26 04:57:55;;;;;;;8.27;6.27;;;;;;;21.28;80.58;99384.38;5113166;28;20219;-80
2022/05/26 05:00:23;;;;;;;13.27;7.10;;;;;;;21.40;80.60;99386.44;5113037;28;20203;-81
2022/05/26 05:02:50;;;;;;;10.27;7.00;;;;;;;21.58;80.68;99390.53;5112813;28;20702;-81
2022/05/26 05:05:17;;;;;;;7.13;6.23;;;;;;;21.57;80.08;99392.34;5113066;28;20208;-81
2022/05/26 05:07:44;;;;;;;9.83;6.30;;;;;;;21.53;79.31;99390.28;5113032;28;20230;-80
2022/05/26 05:10:10;;;;;;;10.00;6.30;;;;;;;21.62;79.85;99391.81;5112966;28;20200;-82
2022/05/26 05:12:40;;;;;;;7.60;6.50;;;;;;;21.66;80.21;99396.50;5112897;28;20256;-82
2022/05/26 05:15:14;;;;;;;12.33;6.60;;;;;;;21.76;80.59;99391.06;5112675;28;20252;-79
2022/05/26 05:17:44;;;;;;;11.30;6.90;;;;;;;21.72;77.27;99394.97;5112728;28;20241;-82
2022/05/26 05:20:11;;;;;;;9.83;7.00;;;;;;;21.90;79.37;99392.91;5112714;28;20206;-82
2022/05/26 05:22:42;;;;;;;8.33;7.07;;;;;;;22.01;77.47;99396.03;5112689;28;20242;-82
2022/05/26 05:25:15;;;;;;;8.10;6.77;;;;;;;22.13;77.13;99408.44;5112678;28;20205;-82
2022/05/26 05:27:45;;;;;;;9.47;6.80;;;;;;;22.08;76.21;99399.56;5112684;28;20226;-80
2022/05/26 05:30:16;;;;;;;8.53;6.90;;;;;;;22.09;76.35;99407.19;5112203;28;20690;-82
2022/05/26 05:32:49;;;;;;;9.63;6.97;;;;;;;22.23;75.27;99403.03;5112299;28;20240;-80
2022/05/26 05:35:22;;;;;;;11.27;7.53;;;;;;;22.26;76.04;99400.06;5112444;28;20197;-80
2022/05/26 05:37:49;;;;;;;10.67;7.83;;;;;;;22.00;76.09;99391.81;5112512;28;20723;-81
2022/05/26 05:40:16;;;;;;;10.30;7.67;;;;;;;22.03;76.67;99391.47;5112168;28;20588;-80
2022/05/26 05:42:42;;;;;;;9.63;7.77;;;;;;;22.17;78.75;99398.53;5112212;28;20380;-80
2022/05/26 05:45:10;;;;;;;8.53;7.57;;;;;;;22.13;77.87;99398.03;5112299;28;20212;-81
2022/05/26 05:47:37;;;;;;;12.40;8.37;;;;;;;22.32;78.40;99399.34;5112150;28;20224;-80
2022/05/26 05:50:06;;;;;;;9.33;7.60;;;;;;;22.42;78.01;99401.66;5111985;28;20216;-81
2022/05/26 05:52:33;;;;;;;9.20;7.37;;;;;;;22.55;77.08;99408.88;5111711;28;20762;-81
2022/05/26 05:55:00;;;;;;;10.35;8.07;;;;;;;22.55;76.60;99409.69;5112196;28;20202;-80
2022/05/26 05:57:27;;;;;;;9.68;8.07;;;;;;;22.83;76.65;99415.06;5112190;28;20223;-79
2022/05/26 05:59:54;;;;;;;11.55;8.00;;;;;;;23.17;75.38;99421.47;5111792;28;20201;-79
2022/05/26 06:02:21;;;;;;;10.88;7.70;;;;;;;23.53;75.69;99428.47;5111972;28;20225;-82
2022/05/26 06:04:48;;;;;;;8.13;7.30;;;;;;;23.70;74.86;99423.84;5111615;28;20349;-82
2022/05/26 06:07:18;;;;;;;9.65;7.10;;;;;;;23.90;73.08;99421.38;5110992;28;20213;-82
2022/05/26 06:09:46;;;;;;;9.57;7.13;;;;;;;23.96;71.41;99425.84;5111633;28;20205;-81
2022/05/26 06:12:14;;;;;;;8.10;6.22;;;;;;;24.20;69.17;99431.66;5111732;28;20261;-81
2022/05/26 06:14:42;;;;;;;11.77;6.68;;;;;;;24.16;69.29;99421.59;5111679;28;20202;-81
2022/05/26 06:17:09;;;;;;;9.32;6.80;;;;;;;24.17;68.63;99428.44;5111710;28;20228;-81
2022/05/26 06:19:36;;;;;;;9.52;6.70;;;;;;;24.28;68.79;99431.50;5111375;28;20668;-81
2022/05/26 06:22:09;;;;;;;8.75;6.38;;;;;;;24.57;68.16;99433.13;5111501;28;20224;-81
2022/05/26 06:24:38;;;;;;;9.43;6.38;;;;;;;24.71;65.84;99442.66;5111415;28;20193;-82
2022/05/26 06:29:49;;;;;;;7.22;6.00;;;;;;;25.05;66.54;99447.03;5111306;28;20290;-82
2022/05/26 06:29:52;;;;;;;8.60;6.18;;;;;;;25.39;64.21;99445.31;5111200;28;20201;-82
2022/05/26 06:37:50;;;;;;;9.23;6.30;;;;;;;26.06;61.54;99442.78;5111268;28;20220;-82
2022/05/26 06:40:19;;;;;;;7.53;6.40;;;;;;;26.39;63.38;99433.09;5111317;28;20213;-82
2022/05/26 06:42:47;;;;;;;9.18;7.05;;;;;;;26.75;62.22;99447.53;5111290;28;20213;-82
2022/05/26 06:45:15;;;;;;;9.80;6.45;;;;;;;26.74;62.11;99445.94;5111057;28;20197;-83
2022/05/26 06:47:43;;;;;;;10.10;7.05;;;;;;;26.77;60.96;99450.75;5111346;28;20220;-82
2022/05/26 06:50:11;;;;;;;8.48;6.65;;;;;;;27.06;62.24;99453.88;5110860;28;20198;-83
2022/05/26 06:52:39;;;;;;;12.10;7.22;;;;;;;27.36;60.59;99455.97;5110146;28;20336;-83
2022/05/26 06:55:08;;;;;;;8.27;7.22;;;;;;;27.65;58.55;99462.44;5109342;28;20764;-83
2022/05/26 06:57:37;;;;;;;10.65;7.53;;;;;;;27.83;59.03;99469.63;5110943;28;20221;-83
2022/05/26 07:00:06;;;;;;;10.05;6.82;;;;;;;28.02;58.79;99473.94;5110886;28;20205;-83
2022/05/26 07:02:33;;;;;;;8.77;6.90;;;;;;;28.32;58.89;99473.25;5111038;28;20225;-83
2022/05/26 07:05:00;;;;;;;10.45;6.63;;;;;;;28.46;57.92;99482.66;5111042;28;20201;-83
2022/05/26 07:07:27;;;;;;;9.20;6.40;;;;;;;28.53;56.89;99485.22;5111098;28;20279;-83
2022/05/26 07:09:55;;;;;;;7.97;6.45;;;;;;;28.83;55.37;99493.19;5110638;28;20200;-83
2022/05/26 07:12:23;;;;;;;9.23;6.65;;;;;;;28.85;54.49;99491.94;5110684;28;20323;-82
2022/05/26 07:14:51;;;;;;;7.25;6.45;;;;;;;28.85;54.06;99478.78;5110591;28;20197;-83
2022/05/26 07:17:18;;;;;;;9.38;5.70;;;;;;;28.91;51.09;99482.34;5110519;28;20633;-82
2022/05/26 07:19:45;;;;;;;7.57;5.88;;;;;;;29.07;55.49;99481.00;5110476;28;20623;-83
2022/05/26 07:22:12;;;;;;;8.93;6.07;;;;;;;29.32;53.08;99480.84;5110302;28;20236;-83
2022/05/26 07:24:39;;;;;;;8.18;5.63;;;;;;;29.58;52.62;99481.50;5110352;28;20193;-80
2022/05/26 07:27:06;;;;;;;9.25;5.85;;;;;;;29.69;50.94;99483.41;5110429;28;20225;-80
2022/05/26 07:29:34;;;;;;;9.30;5.90;;;;;;;29.89;52.23;99483.91;5110384;28;20682;-81
2022/05/26 07:32:04;;;;;;;9.13;6.18;;;;;;;30.10;51.79;99489.66;5110252;28;20217;-80
2022/05/26 07:34:30;;;;;;;8.50;7.03;;;;;;;30.26;50.76;99496.91;5110217;28;20734;-79
2022/05/26 07:42:31;;;;;;;9.25;5.70;;;;;;;30.41;50.04;99486.69;5110278;28;20773;-79
2022/05/26 07:44:59;;;;;;;7.85;5.43;;;;;;;30.16;48.51;99488.72;5110164;28;20209;-79
2022/05/26 07:47:27;;;;;;;9.45;5.63;;;;;;;30.28;48.63;99497.47;5110361;28;20221;-80
2022/05/26 07:49:55;;;;;;;6.97;5.00;;;;;;;30.15;45.83;99487.13;5109715;28;20261;-79
2022/05/26 07:52:22;;;;;;;9.15;5.63;;;;;;;30.11;46.90;99492.06;5110133;28;20221;-80
2022/05/26 07:54:49;;;;;;;9.32;6.13;;;;;;;30.19;47.23;99493.53;5110211;28;20201;-82
2022/05/26 07:57:21;;;;;;;7.68;6.60;;;;;;;29.95;49.18;99490.91;5109987;28;20217;-80
2022/05/26 07:59:48;;;;;;;7.63;6.30;;;;;;;30.01;50.93;99497.88;5110060;28;20293;-80
2022/05/26 08:02:15;;;;;;;8.98;6.60;;;;;;;30.27;50.53;99495.88;5110012;28;20228;-80
2022/05/26 08:04:43;;;;;;;10.35;6.55;;;;;;;30.41;49.22;99488.53;5110138;28;20228;-82
2022/05/26 08:07:11;;;;;;;10.27;6.72;;;;;;;30.72;48.27;99489.16;5110035;28;20218;-80
2022/05/26 08:09:38;;;;;;;10.45;6.10;;;;;;;30.99;47.92;99486.84;5109755;28;20201;-81
2022/05/26 08:12:06;;;;;;;12.35;6.93;;;;;;;30.88;48.84;99502.47;5109949;28;20432;-80
2022/05/26 08:14:33;;;;;;;7.70;6.90;;;;;;;30.52;49.80;99497.47;5109528;28;20247;-82
2022/05/26 08:17:01;;;;;;;10.52;6.78;;;;;;;30.68;49.29;99494.13;5109907;28;20225;-80
2022/05/26 08:19:28;;;;;;;9.60;7.32;;;;;;;31.12;50.18;99491.84;5109884;28;20533;-82
2022/05/26 08:21:59;;;;;;;8.35;6.28;;;;;;;31.32;47.54;99496.69;5109100;28;20316;-82
2022/05/26 08:24:27;;;;;;;12.93;5.90;;;;;;;31.19;44.67;99492.53;5108914;28;20189;-82
2022/05/26 08:26:54;;;;;;;7.55;5.30;;;;;;;31.12;46.05;99492.63;5109377;28;20221;-79
2022/05/26 08:29:20;;;;;;;8.90;5.60;;;;;;;31.11;44.77;99496.31;5111042;28;20201;-83
2022/05/26 08:31:47;;;;;;;9.77;5.13;;;;;;;31.17;45.22;99499.88;5113581;28;20224;-82
2022/05/26 08:34:14;;;;;;;8.93;5.13;;;;;;;31.31;42.24;99501.19;5113731;28;20282;-80
2022/05/26 08:36:41;;;;;;;6.72;5.20;;;;;;;31.45;43.73;99500.94;5113783;28;20614;-82
2022/05/26 08:39:09;;;;;;;5.65;5.13;;;;;;;31.63;43.39;99503.38;5112494;28;20193;-79
2022/05/26 08:41:39;;;;;;;6.65;5.07;;;;;;;31.93;42.52;99502.28;5113017;28;20715;-78
2022/05/26 08:44:10;;;;;;;6.95;4.70;;;;;;;32.04;42.67;99493.47;5113447;28;20208;-81
2022/05/26 08:46:43;;;;;;;10.98;5.55;;;;;;;31.95;41.91;99510.78;5113540;28;20220;-80
2022/05/26 08:49:16;;;;;;;9.07;5.60;;;;;;;31.69;42.95;99512.97;5113780;28;20581;-80
2022/05/26 08:51:48;;;;;;;10.25;5.40;;;;;;;31.70;42.06;99503.19;5113244;27;20225;-80
2022/05/26 08:54:23;;;;;;;6.88;5.05;;;;;;;32.01;47.09;99509.81;5113162;28;20723;-80
2022/05/26 08:56:52;;;;;;;7.25;5.18;;;;;;;32.06;42.75;99506.44;5113093;28;20240;-81
2022/05/26 08:59:24;;;;;;;9.65;5.60;;;;;;;31.93;41.80;99497.78;5113291;28;20198;-81
2022/05/26 09:01:50;;;;;;;6.95;5.18;;;;;;;32.22;43.60;99522.31;5112277;28;20324;-81
2022/05/26 09:04:18;;;;;;;8.55;5.50;;;;;;;32.23;43.10;99518.63;5112998;28;20733;-82
2022/05/26 09:15:16;;;;;;;7.78;5.38;;;;;;;31.99;43.59;99511.91;5113012;28;20290;-80
2022/05/26 09:17:43;;;;;;;10.73;5.25;;;;;;;31.89;41.50;99519.66;5112744;28;20224;-84
2022/05/26 09:20:34;;;;;;;6.45;4.97;;;;;;;31.94;42.63;99514.44;5113012;28;20205;-82
2022/05/26 09:23:21;;;;;;;9.13;4.90;;;;;;;31.83;41.42;99508.19;5113257;28;20221;-78
2022/05/26 09:25:51;;;;;;;7.07;4.88;;;;;;;31.89;41.76;99514.38;5112834;28;20221;-81
2022/05/26 09:28:33;;;;;;;7.57;4.68;;;;;;;31.63;42.67;99505.22;5112599;28;20723;-83
2022/05/26 09:31:22;;;;;;;7.93;4.10;;;;;;;31.84;41.53;99514.28;5112829;28;20928;-83
2022/05/26 09:34:11;;;;;;;6.78;4.50;;;;;;;32.01;41.58;99510.63;5112446;28;20757;-81
2022/05/26 09:36:44;;;;;;;5.85;4.25;;;;;;;32.11;40.94;99509.16;5107695;28;20232;-82
2022/05/26 09:39:11;;;;;;;5.00;3.47;;;;;;;32.12;40.03;99516.88;5112421;28;20567;-82
2022/05/26 09:41:43;;;;;;;5.88;3.55;;;;;;;32.00;39.99;99513.53;5111364;28;20214;-82
2022/05/26 09:44:39;;;;;;;6.18;3.97;;;;;;;32.09;41.46;99496.19;5112637;28;20197;-83
2022/05/26 09:47:20;;;;;;;5.68;3.75;;;;;;;32.14;39.99;99498.91;5109088;28;20660;-81
2022/05/26 09:49:51;;;;;;;8.15;4.32;;;;;;;32.18;39.85;99500.03;5112160;28;20198;-81
2022/05/26 09:52:20;;;;;;;7.03;3.85;;;;;;;32.44;38.60;99509.13;5112339;28;20226;-83
2022/05/26 09:54:49;;;;;;;6.53;3.47;;;;;;;32.39;37.78;99506.41;5111924;28;20233;-82
2022/05/26 09:57:20;;;;;;;5.95;3.10;;;;;;;32.46;37.83;99506.25;5112040;28;20225;-82
2022/05/26 09:59:48;;;;;;;4.82;3.20;;;;;;;32.27;38.96;99507.56;5111783;28;20209;-81
2022/05/26 10:02:22;;;;;;;7.65;3.30;;;;;;;32.24;38.76;99509.63;5111915;28;20221;-81
2022/05/26 10:05:04;;;;;;;8.60;3.53;;;;;;;32.46;38.58;99522.13;5111872;28;20292;-83
2022/05/26 10:07:42;;;;;;;8.65;3.72;;;;;;;32.57;37.89;99515.16;5112291;28;20285;-82
2022/05/26 10:10:16;;;;;;;7.28;3.78;;;;;;;32.52;39.50;99521.16;5112069;28;20201;-85
2022/05/26 10:12:54;;;;;;;7.53;3.75;;;;;;;32.60;38.74;99523.38;5112004;28;20227;-81
2022/05/26 10:15:37;;;;;;;10.73;3.90;;;;;;;32.73;39.37;99516.94;5111684;27;20994;-82
2022/05/26 10:18:29;;;;;;;9.90;4.75;;;;;;;32.63;39.03;99533.50;5111654;28;20221;-83
2022/05/26 10:21:03;;;;;;;5.57;3.70;;;;;;;32.62;39.29;99521.31;5111511;28;20208;-84
2022/05/26 10:23:47;;;;;;;11.27;4.50;;;;;;;32.89;39.21;99528.53;5111949;28;20674;-84
2022/05/26 10:26:24;;;;;;;8.35;3.58;;;;;;;32.80;37.75;99522.06;5111457;28;20201;-84
2022/05/26 10:29:09;;;;;;;7.53;4.22;;;;;;;32.84;39.24;99517.84;5111092;28;20693;-81
2022/05/26 10:31:54;;;;;;;5.72;4.25;;;;;;;32.87;39.57;99522.66;5111714;28;20217;-82
2022/05/26 10:34:43;;;;;;;9.77;4.53;;;;;;;32.66;38.19;99519.75;5111076;28;20722;-81
2022/05/26 10:37:23;;;;;;;9.30;4.03;;;;;;;32.73;38.31;99516.16;5111246;28;20221;-82
2022/05/26 10:40:23;;;;;;;8.15;4.35;;;;;;;32.71;38.68;99512.94;5111302;28;20638;-84
2022/05/26 10:42:57;;;;;;;8.52;3.63;;;;;;;32.61;39.28;99510.94;5110982;28;20222;-82
2022/05/26 10:45:31;;;;;;;7.38;3.50;;;;;;;32.80;38.00;99506.97;5111207;28;20223;-82
2022/05/26 10:48:06;;;;;;;7.50;3.78;;;;;;;32.80;37.72;99500.88;5111444;28;20225;-82
2022/05/26 10:50:39;;;;;;;8.43;3.88;;;;;;;32.70;39.03;99512.16;5111371;28;20675;-81
2022/05/26 10:53:17;;;;;;;8.35;3.70;;;;;;;33.00;38.45;99501.13;5110461;28;20286;-81
2022/05/26 10:55:53;;;;;;;7.93;3.53;;;;;;;33.32;39.03;99487.16;5111278;28;20672;-81
2022/05/26 10:58:25;;;;;;;7.20;3.35;;;;;;;33.18;37.24;99501.84;5111005;28;20224;-82
2022/05/26 11:00:58;;;;;;;5.57;3.45;;;;;;;33.20;38.58;99495.25;5110974;28;20641;-82
2022/05/26 11:03:31;;;;;;;8.55;3.90;;;;;;;33.19;37.11;99498.16;5111022;28;20248;-81
2022/05/26 11:06:04;;;;;;;7.00;3.83;;;;;;;33.24;38.43;99492.91;5110615;28;20209;-82
2022/05/26 11:08:39;;;;;;;6.20;3.65;;;;;;;33.26;37.49;99482.88;5110919;28;20253;-83
2022/05/26 11:11:13;;;;;;;5.35;3.60;;;;;;;33.21;37.16;99485.47;5110535;28;20200;-82
2022/05/26 11:13:49;;;;;;;7.25;3.67;;;;;;;33.29;38.86;99492.97;5110562;28;20710;-84
2022/05/26 11:19:32;;;;;;;7.75;3.65;;;;;;;33.35;36.46;99481.34;5110553;28;20209;-83
2022/05/26 11:22:00;;;;;;;8.52;3.22;;;;;;;33.03;36.01;99495.34;5110392;28;20217;-81
2022/05/26 11:24:28;;;;;;;7.18;3.60;;;;;;;32.95;35.62;99487.00;5110305;28;20224;-80
2022/05/26 11:27:01;;;;;;;8.18;3.28;;;;;;;32.87;37.07;99486.41;5110480;28;20214;-82
2022/05/26 11:29:33;;;;;;;5.93;3.42;;;;;;;32.93;36.18;99481.97;5110513;28;20194;-81
2022/05/26 11:38:12;;;;;;;6.85;3.38;;;;;;;33.08;37.77;99471.56;5110245;28;20220;-83
2022/05/26 11:40:45;;;;;;;5.18;3.40;;;;;;;33.03;36.35;99478.66;5109960;28;20208;-82
2022/05/26 11:43:22;;;;;;;13.45;3.60;;;;;;;32.98;37.72;99474.06;5110498;28;20610;-82
2022/05/26 11:45:52;;;;;;;6.78;3.00;;;;;;;33.10;37.48;99469.47;5110039;28;20296;-80
2022/05/26 11:48:40;;;;;;;6.38;3.33;;;;;;;32.96;36.49;99460.28;5110064;28;20220;-81
2022/05/26 11:51:29;;;;;;;7.15;3.50;;;;;;;32.88;36.07;99460.72;5109953;28;20209;-80
2022/05/26 11:53:56;;;;;;;6.20;2.78;;;;;;;32.88;35.70;99472.09;5109996;28;20722;-83
2022/05/26 11:56:53;;;;;;;5.47;3.20;;;;;;;32.67;35.58;99465.78;5110330;28;20201;-81
2022/05/26 11:59:45;;;;;;;6.93;3.15;;;;;;;32.48;36.62;99472.41;5109925;28;20224;-81
2022/05/26 12:02:33;;;;;;;5.13;3.40;;;;;;;32.20;36.92;99468.84;5109977;28;20280;-82
2022/05/26 12:05:33;;;;;;;9.40;3.53;;;;;;;32.16;37.80;99459.78;5109011;28;20640;-80
2022/05/26 12:08:04;;;;;;;7.68;3.30;;;;;;;32.17;39.15;99450.81;5110373;28;20232;-80
2022/05/26 12:10:39;;;;;;;4.75;3.28;;;;;;;32.39;37.88;99450.81;5109801;28;20228;-81
2022/05/26 12:13:27;;;;;;;4.55;2.83;;;;;;;32.50;37.71;99451.78;5109983;28;20217;-81
2022/05/26 12:16:27;;;;;;;4.95;3.30;;;;;;;32.51;38.01;99450.75;5109530;28;20244;-82
2022/05/26 12:18:57;;;;;;;7.93;3.80;;;;;;;32.53;37.21;99448.66;5075948;28;20203;-81
2022/05/26 12:21:46;;;;;;;5.57;3.30;;;;;;;32.54;37.00;99444.94;5109975;28;20236;-81
2022/05/26 12:24:55;;;;;;;4.70;3.13;;;;;;;32.62;37.46;99449.03;5109961;28;20209;-84
2022/05/26 12:28:04;;;;;;;7.38;3.30;;;;;;;32.75;36.48;99437.25;5109495;28;20228;-82